createdAt,value
2023-03-22T00:00:09.228Z,88.82
2023-03-22T00:00:41.728Z,88.92
2023-03-22T00:01:14.182Z,89.33
2023-03-22T00:01:46.674Z,89.12
2023-03-22T00:02:19.147Z,88.82
2023-03-22T00:02:51.617Z,88.62
2023-03-22T00:03:24.181Z,89.12
2023-03-22T00:03:56.543Z,89.12
2023-03-22T00:04:29.010Z,89.03
2023-03-22T00:05:01.557Z,88.82
2023-03-22T00:05:34.022Z,88.62
2023-03-22T00:06:06.502Z,88.62
2023-03-22T00:06:38.951Z,88.51
2023-03-22T00:07:11.384Z,88.82
2023-03-22T00:07:43.865Z,88.62
2023-03-22T00:08:16.316Z,88.62
2023-03-22T00:08:48.865Z,88.51
2023-03-22T00:09:21.347Z,88.62
2023-03-22T00:09:53.827Z,88.62
2023-03-22T00:10:26.263Z,88.62
2023-03-22T00:10:58.737Z,88.62
2023-03-22T00:11:31.211Z,88.82
2023-03-22T00:12:03.676Z,88.92
2023-03-22T00:12:36.167Z,88.92
2023-03-22T00:13:08.639Z,89.33
2023-03-22T00:13:41.092Z,89.74
2023-03-22T00:14:13.622Z,89.43
2023-03-22T00:14:46.050Z,89.23
2023-03-22T00:15:18.486Z,89.37
2023-03-22T00:15:51.031Z,89.47
2023-03-22T00:16:23.526Z,89.37
2023-03-22T00:16:55.904Z,89.37
2023-03-22T00:17:28.345Z,89.58
2023-03-22T00:18:00.835Z,89.27
2023-03-22T00:18:33.302Z,89.17
2023-03-22T00:19:05.771Z,89.27
2023-03-22T00:19:38.283Z,88.96
2023-03-22T00:20:10.774Z,88.96
2023-03-22T00:20:43.234Z,89.27
2023-03-22T00:21:15.716Z,89.06
2023-03-22T00:21:48.163Z,89.17
2023-03-22T00:22:20.652Z,89.89
2023-03-22T00:22:53.144Z,90.30
2023-03-22T00:23:25.617Z,89.58
2023-03-22T00:23:58.036Z,88.96
2023-03-22T00:24:30.480Z,89.37
2023-03-22T00:25:02.941Z,89.68
2023-03-22T00:25:35.388Z,89.58
2023-03-22T00:26:07.925Z,89.27
2023-03-22T00:26:40.403Z,89.06
2023-03-22T00:27:12.910Z,88.96
2023-03-22T00:27:45.360Z,89.06
2023-03-22T00:28:17.824Z,88.82
2023-03-22T00:28:50.264Z,89.03
2023-03-22T00:29:22.707Z,89.17
2023-03-22T00:29:55.173Z,88.86
2023-03-22T00:30:27.663Z,88.76
2023-03-22T00:31:00.172Z,89.58
2023-03-22T00:31:32.635Z,89.78
2023-03-22T00:32:05.085Z,89.58
2023-03-22T00:32:37.551Z,89.47
2023-03-22T00:33:09.997Z,89.37
2023-03-22T00:33:42.484Z,89.47
2023-03-22T00:34:14.950Z,89.68
2023-03-22T00:34:47.470Z,89.78
2023-03-22T00:35:20.001Z,89.78
2023-03-22T00:35:52.397Z,89.37
2023-03-22T00:36:24.853Z,89.27
2023-03-22T00:36:57.296Z,89.37
2023-03-22T00:37:29.764Z,89.47
2023-03-22T00:38:02.209Z,89.17
2023-03-22T00:38:42.028Z,89.27
2023-03-22T00:39:07.116Z,89.58
2023-03-22T00:39:39.588Z,89.78
2023-03-22T00:40:12.145Z,89.58
2023-03-22T00:40:44.600Z,90.09
2023-03-22T00:41:17.053Z,89.89
2023-03-22T00:41:49.517Z,89.89
2023-03-22T00:42:21.973Z,89.47
2023-03-22T00:42:54.439Z,89.37
2023-03-22T00:43:26.906Z,89.89
2023-03-22T00:43:59.376Z,89.98
2023-03-22T00:44:31.826Z,89.89
2023-03-22T00:45:04.272Z,89.98
2023-03-22T00:45:36.716Z,89.98
2023-03-22T00:46:09.236Z,89.98
2023-03-22T00:46:41.583Z,90.39
2023-03-22T00:47:14.077Z,90.91
2023-03-22T00:47:46.625Z,90.91
2023-03-22T00:48:19.108Z,90.84
2023-03-22T00:48:51.508Z,90.50
2023-03-22T00:49:23.941Z,90.70
2023-03-22T00:49:56.445Z,90.50
2023-03-22T00:50:28.878Z,90.19
2023-03-22T00:51:01.353Z,90.60
2023-03-22T00:51:33.839Z,90.81
2023-03-22T00:52:06.272Z,90.30
2023-03-22T00:52:38.735Z,90.30
2023-03-22T00:53:11.246Z,90.30
2023-03-22T00:53:43.899Z,89.89
2023-03-22T00:54:16.160Z,89.98
2023-03-22T00:54:48.583Z,90.09
2023-03-22T00:55:21.046Z,90.09
2023-03-22T00:55:53.627Z,90.09
2023-03-22T00:56:26.044Z,89.98
2023-03-22T00:56:58.504Z,89.78
2023-03-22T00:57:30.968Z,89.78
2023-03-22T00:58:03.447Z,90.09
2023-03-22T00:58:35.967Z,90.30
2023-03-22T00:59:08.419Z,90.50
2023-03-22T00:59:40.960Z,90.39
2023-03-22T01:00:13.440Z,89.98
2023-03-22T01:00:45.954Z,90.19
2023-03-22T01:01:18.371Z,90.60
2023-03-22T01:01:50.773Z,90.30
2023-03-22T01:02:23.217Z,90.30
2023-03-22T01:02:55.742Z,90.39
2023-03-22T01:03:28.243Z,90.19
2023-03-22T01:04:00.858Z,90.09
2023-03-22T01:04:33.199Z,89.89
2023-03-22T01:05:05.681Z,89.68
2023-03-22T01:05:38.173Z,89.98
2023-03-22T01:06:10.626Z,89.78
2023-03-22T01:06:43.064Z,89.89
2023-03-22T01:07:15.501Z,89.89
2023-03-22T01:07:47.963Z,89.89
2023-03-22T01:08:20.451Z,90.39
2023-03-22T01:08:52.891Z,90.30
2023-03-22T01:09:25.359Z,89.98
2023-03-22T01:09:57.828Z,90.09
2023-03-22T01:10:30.249Z,90.39
2023-03-22T01:11:02.709Z,90.66
2023-03-22T01:11:35.155Z,90.39
2023-03-22T01:12:07.652Z,90.39
2023-03-22T01:12:40.108Z,90.70
2023-03-22T01:13:12.566Z,90.39
2023-03-22T01:13:45.037Z,90.50
2023-03-22T01:14:17.508Z,90.70
2023-03-22T01:14:49.964Z,90.50
2023-03-22T01:15:22.408Z,90.39
2023-03-22T01:15:54.840Z,90.70
2023-03-22T01:16:27.310Z,90.60
2023-03-22T01:16:59.756Z,90.39
2023-03-22T01:17:32.176Z,90.30
2023-03-22T01:18:04.689Z,89.94
2023-03-22T01:18:37.149Z,90.25
2023-03-22T01:19:09.596Z,90.66
2023-03-22T01:19:42.106Z,90.36
2023-03-22T01:20:14.585Z,90.56
2023-03-22T01:20:47.052Z,90.45
2023-03-22T01:21:19.517Z,90.77
2023-03-22T01:21:51.934Z,90.86
2023-03-22T01:22:24.366Z,90.77
2023-03-22T01:22:56.790Z,90.05
2023-03-22T01:23:29.251Z,90.15
2023-03-22T01:24:01.685Z,90.45
2023-03-22T01:24:34.130Z,90.45
2023-03-22T01:25:06.609Z,90.66
2023-03-22T01:25:39.068Z,90.77
2023-03-22T01:26:11.521Z,90.56
2023-03-22T01:26:43.970Z,90.36
2023-03-22T01:27:16.436Z,90.56
2023-03-22T01:27:48.904Z,90.77
2023-03-22T01:28:21.398Z,90.77
2023-03-22T01:28:53.907Z,90.97
2023-03-22T01:29:26.381Z,91.22
2023-03-22T01:29:58.844Z,90.91
2023-03-22T01:30:31.362Z,90.60
2023-03-22T01:31:03.815Z,90.70
2023-03-22T01:31:36.223Z,90.50
2023-03-22T01:32:08.726Z,90.86
2023-03-22T01:32:41.164Z,91.01
2023-03-22T01:33:13.637Z,90.91
2023-03-22T01:33:46.107Z,91.01
2023-03-22T01:34:18.524Z,91.11
2023-03-22T01:34:50.961Z,91.31
2023-03-22T01:35:23.432Z,91.11
2023-03-22T01:35:55.907Z,90.81
2023-03-22T01:36:28.294Z,91.31
2023-03-22T01:37:00.852Z,91.22
2023-03-22T01:37:33.313Z,90.91
2023-03-22T01:38:05.809Z,90.81
2023-03-22T01:38:38.308Z,91.17
2023-03-22T01:39:10.801Z,91.42
2023-03-22T01:39:43.296Z,91.31
2023-03-22T01:40:15.785Z,91.42
2023-03-22T01:40:48.241Z,91.11
2023-03-22T01:41:20.700Z,91.01
2023-03-22T01:41:53.207Z,91.31
2023-03-22T01:42:25.667Z,91.31
2023-03-22T01:42:58.118Z,91.11
2023-03-22T01:43:30.599Z,90.81
2023-03-22T01:44:03.045Z,90.91
2023-03-22T01:44:35.541Z,90.45
2023-03-22T01:45:08.022Z,90.45
2023-03-22T01:45:40.444Z,90.56
2023-03-22T01:46:12.935Z,90.56
2023-03-22T01:46:45.409Z,90.45
2023-03-22T01:47:18.047Z,90.36
2023-03-22T01:47:51.166Z,90.56
2023-03-22T01:48:23.034Z,90.45
2023-03-22T01:48:55.508Z,90.56
2023-03-22T01:49:27.990Z,90.66
2023-03-22T01:50:00.410Z,90.77
2023-03-22T01:50:32.889Z,90.97
2023-03-22T01:51:05.367Z,90.66
2023-03-22T01:51:37.801Z,90.77
2023-03-22T01:52:10.269Z,90.86
2023-03-22T01:52:42.749Z,90.56
2023-03-22T01:53:15.189Z,90.56
2023-03-22T01:53:47.643Z,90.86
2023-03-22T01:54:20.130Z,90.77
2023-03-22T01:54:52.623Z,90.56
2023-03-22T01:55:25.046Z,90.56
2023-03-22T01:55:57.509Z,90.66
2023-03-22T01:56:29.964Z,90.86
2023-03-22T01:57:02.419Z,90.86
2023-03-22T01:57:34.905Z,90.77
2023-03-22T01:58:07.405Z,90.45
2023-03-22T01:58:39.805Z,90.56
2023-03-22T01:59:12.268Z,90.45
2023-03-22T01:59:44.735Z,90.56
2023-03-22T02:00:17.208Z,90.45
2023-03-22T02:00:49.682Z,90.05
2023-03-22T02:01:22.217Z,90.05
2023-03-22T02:01:54.571Z,90.05
2023-03-22T02:02:27.092Z,90.25
2023-03-22T02:02:59.545Z,90.36
2023-03-22T02:03:31.965Z,90.45
2023-03-22T02:04:04.449Z,90.56
2023-03-22T02:04:36.961Z,90.25
2023-03-22T02:05:09.463Z,90.56
2023-03-22T02:05:41.887Z,90.56
2023-03-22T02:06:14.440Z,90.86
2023-03-22T02:06:46.946Z,90.86
2023-03-22T02:07:19.412Z,91.07
2023-03-22T02:07:51.867Z,90.86
2023-03-22T02:08:24.336Z,90.81
2023-03-22T02:08:56.788Z,90.60
2023-03-22T02:09:29.278Z,90.45
2023-03-22T02:10:01.788Z,90.77
2023-03-22T02:10:34.259Z,90.77
2023-03-22T02:11:06.684Z,90.56
2023-03-22T02:11:39.184Z,90.66
2023-03-22T02:12:11.708Z,90.66
2023-03-22T02:12:44.198Z,90.77
2023-03-22T02:13:16.685Z,90.56
2023-03-22T02:13:49.202Z,90.56
2023-03-22T02:14:23.348Z,90.86
2023-03-22T02:14:54.255Z,90.91
2023-03-22T02:15:26.707Z,90.70
2023-03-22T02:15:59.246Z,90.60
2023-03-22T02:16:31.625Z,90.60
2023-03-22T02:17:04.173Z,90.91
2023-03-22T02:17:36.542Z,91.01
2023-03-22T02:18:09.169Z,90.91
2023-03-22T02:18:41.575Z,90.81
2023-03-22T02:19:14.088Z,91.01
2023-03-22T02:19:46.609Z,91.22
2023-03-22T02:20:19.083Z,91.42
2023-03-22T02:20:51.568Z,91.22
2023-03-22T02:21:24.047Z,91.01
2023-03-22T02:21:56.526Z,91.11
2023-03-22T02:22:28.939Z,91.22
2023-03-22T02:23:01.408Z,91.52
2023-03-22T02:23:33.913Z,91.42
2023-03-22T02:24:06.409Z,91.52
2023-03-22T02:24:38.844Z,91.63
2023-03-22T02:25:11.319Z,91.52
2023-03-22T02:25:43.782Z,91.56
2023-03-22T02:26:16.302Z,91.56
2023-03-22T02:26:48.773Z,91.77
2023-03-22T02:27:21.263Z,91.77
2023-03-22T02:27:53.799Z,91.67
2023-03-22T02:28:26.289Z,91.97
2023-03-22T02:28:58.816Z,91.87
2023-03-22T02:29:31.314Z,91.46
2023-03-22T02:30:03.773Z,91.46
2023-03-22T02:30:36.406Z,91.77
2023-03-22T02:31:08.723Z,91.67
2023-03-22T02:31:41.172Z,91.67
2023-03-22T02:32:13.604Z,91.56
2023-03-22T02:32:46.112Z,91.67
2023-03-22T02:33:18.620Z,91.77
2023-03-22T02:33:51.096Z,91.67
2023-03-22T02:34:23.590Z,91.56
2023-03-22T02:34:56.043Z,91.46
2023-03-22T02:35:28.509Z,91.46
2023-03-22T02:36:01.041Z,91.46
2023-03-22T02:36:33.540Z,91.56
2023-03-22T02:37:05.975Z,91.67
2023-03-22T02:37:38.438Z,91.56
2023-03-22T02:38:10.925Z,91.67
2023-03-22T02:38:43.515Z,91.67
2023-03-22T02:39:15.964Z,91.87
2023-03-22T02:39:48.428Z,92.18
2023-03-22T02:40:20.990Z,91.97
2023-03-22T02:40:53.512Z,91.87
2023-03-22T02:41:25.990Z,91.87
2023-03-22T02:41:58.424Z,92.28
2023-03-22T02:42:30.860Z,92.32
2023-03-22T02:43:03.298Z,92.43
2023-03-22T02:43:35.805Z,92.63
2023-03-22T02:44:08.305Z,92.83
2023-03-22T02:44:40.726Z,92.94
2023-03-22T02:45:13.183Z,92.74
2023-03-22T02:45:45.654Z,92.74
2023-03-22T02:46:18.166Z,93.04
2023-03-22T02:46:50.601Z,93.15
2023-03-22T02:47:23.038Z,92.94
2023-03-22T02:47:55.548Z,92.94
2023-03-22T02:48:28.040Z,92.83
2023-03-22T02:49:00.564Z,92.83
2023-03-22T02:49:33.060Z,93.04
2023-03-22T02:50:05.506Z,92.83
2023-03-22T02:50:38.254Z,92.53
2023-03-22T02:51:10.384Z,92.63
2023-03-22T02:51:42.905Z,92.74
2023-03-22T02:52:15.372Z,92.83
2023-03-22T02:52:47.863Z,92.63
2023-03-22T02:53:20.354Z,92.63
2023-03-22T02:53:52.801Z,92.43
2023-03-22T02:54:25.257Z,92.12
2023-03-22T02:56:40.501Z,92.22
2023-03-22T02:57:12.941Z,92.53
2023-03-22T02:57:45.400Z,92.32
2023-03-22T02:58:17.853Z,92.22
2023-03-22T02:58:50.283Z,92.53
2023-03-22T02:59:22.720Z,93.15
2023-03-22T02:59:55.211Z,93.04
2023-03-22T03:00:27.672Z,92.83
2023-03-22T03:01:00.137Z,93.04
2023-03-22T03:01:32.553Z,93.04
2023-03-22T03:02:04.968Z,93.25
2023-03-22T03:02:37.474Z,93.25
2023-03-22T03:03:09.901Z,93.25
2023-03-22T03:03:42.397Z,93.04
2023-03-22T03:04:14.817Z,93.04
2023-03-22T03:04:47.274Z,93.25
2023-03-22T03:05:19.764Z,93.04
2023-03-22T03:05:52.191Z,92.83
2023-03-22T03:06:24.632Z,92.74
2023-03-22T03:06:57.083Z,92.63
2023-03-22T03:07:29.506Z,92.83
2023-03-22T03:08:01.980Z,92.83
2023-03-22T03:08:34.475Z,92.74
2023-03-22T03:09:06.923Z,92.63
2023-03-22T03:09:39.408Z,92.63
2023-03-22T03:10:11.850Z,92.74
2023-03-22T03:10:44.318Z,92.83
2023-03-22T03:11:16.746Z,93.15
2023-03-22T03:11:49.191Z,92.83
2023-03-22T03:12:21.675Z,92.74
2023-03-22T03:12:54.197Z,93.04
2023-03-22T03:13:26.649Z,93.04
2023-03-22T03:13:59.132Z,92.94
2023-03-22T03:14:31.603Z,93.15
2023-03-22T03:15:04.110Z,93.35
2023-03-22T03:15:36.572Z,93.15
2023-03-22T03:16:09.118Z,93.15
2023-03-22T03:16:41.574Z,93.04
2023-03-22T03:17:14.128Z,92.94
2023-03-22T03:17:46.674Z,92.94
2023-03-22T03:18:19.130Z,93.04
2023-03-22T03:18:51.580Z,92.83
2023-03-22T03:19:24.026Z,92.49
2023-03-22T03:19:56.517Z,92.69
2023-03-22T03:20:28.981Z,92.59
2023-03-22T03:21:01.399Z,92.69
2023-03-22T03:21:33.876Z,92.79
2023-03-22T03:22:06.337Z,92.59
2023-03-22T03:22:38.783Z,92.28
2023-03-22T03:23:11.209Z,92.59
2023-03-22T03:23:43.643Z,92.49
2023-03-22T03:24:16.063Z,92.38
2023-03-22T03:24:48.558Z,92.59
2023-03-22T03:25:21.041Z,92.49
2023-03-22T03:25:53.636Z,92.79
2023-03-22T03:26:26.073Z,92.59
2023-03-22T03:26:58.524Z,92.38
2023-03-22T03:27:30.984Z,92.49
2023-03-22T03:28:03.453Z,92.59
2023-03-22T03:28:36.060Z,92.59
2023-03-22T03:29:08.584Z,92.49
2023-03-22T03:29:41.104Z,92.28
2023-03-22T03:30:13.648Z,92.08
2023-03-22T03:30:46.129Z,92.18
2023-03-22T03:31:18.629Z,91.97
2023-03-22T03:31:51.117Z,91.97
2023-03-22T03:32:23.562Z,92.08
2023-03-22T03:32:56.042Z,92.08
2023-03-22T03:33:29.474Z,92.08
2023-03-22T03:34:01.964Z,92.18
2023-03-22T03:34:34.379Z,92.18
2023-03-22T03:35:06.816Z,92.28
2023-03-22T03:35:39.328Z,92.28
2023-03-22T03:36:11.690Z,92.28
2023-03-22T03:36:44.144Z,92.28
2023-03-22T03:37:16.628Z,92.18
2023-03-22T03:37:49.050Z,92.28
2023-03-22T03:38:21.518Z,92.28
2023-03-22T03:38:54.096Z,92.38
2023-03-22T03:39:26.520Z,92.49
2023-03-22T03:39:58.982Z,92.79
2023-03-22T03:40:31.502Z,92.49
2023-03-22T03:41:03.939Z,92.49
2023-03-22T03:41:36.384Z,92.49
2023-03-22T03:42:08.863Z,92.28
2023-03-22T03:42:41.319Z,92.24
2023-03-22T03:43:13.852Z,92.14
2023-03-22T03:43:46.361Z,92.14
2023-03-22T03:44:18.813Z,91.93
2023-03-22T03:44:51.282Z,92.03
2023-03-22T03:45:23.716Z,92.34
2023-03-22T03:45:56.242Z,92.34
2023-03-22T03:46:28.656Z,92.44
2023-03-22T03:47:01.177Z,92.44
2023-03-22T03:47:33.656Z,92.34
2023-03-22T03:48:06.157Z,92.03
2023-03-22T03:48:38.598Z,92.24
2023-03-22T03:49:11.040Z,92.34
2023-03-22T03:49:43.556Z,92.14
2023-03-22T03:50:16.026Z,91.73
2023-03-22T03:50:48.460Z,91.73
2023-03-22T03:51:20.984Z,91.52
2023-03-22T03:51:53.407Z,91.63
2023-03-22T03:52:25.893Z,91.83
2023-03-22T03:52:58.390Z,91.52
2023-03-22T03:53:30.798Z,91.52
2023-03-22T03:54:03.369Z,91.83
2023-03-22T03:54:35.871Z,91.73
2023-03-22T03:55:08.303Z,91.73
2023-03-22T03:55:40.753Z,91.52
2023-03-22T03:56:13.239Z,91.63
2023-03-22T03:56:45.712Z,91.93
2023-03-22T03:57:18.150Z,91.73
2023-03-22T03:57:50.590Z,91.42
2023-03-22T03:58:23.069Z,91.42
2023-03-22T03:58:55.535Z,91.52
2023-03-22T03:59:27.974Z,91.42
2023-03-22T04:00:00.436Z,91.22
2023-03-22T04:00:32.864Z,91.52
2023-03-22T04:01:05.282Z,91.73
2023-03-22T04:01:37.816Z,91.83
2023-03-22T04:02:10.327Z,91.63
2023-03-22T04:02:42.803Z,91.83
2023-03-22T04:03:15.328Z,91.42
2023-03-22T04:03:48.213Z,91.42
2023-03-22T04:04:20.843Z,91.52
2023-03-22T04:04:53.285Z,91.48
2023-03-22T04:05:25.789Z,91.52
2023-03-22T04:05:58.269Z,91.69
2023-03-22T04:06:30.713Z,91.73
2023-03-22T04:07:03.153Z,91.73
2023-03-22T04:07:35.703Z,91.93
2023-03-22T04:08:08.156Z,92.03
2023-03-22T04:08:40.732Z,91.93
2023-03-22T04:09:13.231Z,92.03
2023-03-22T04:09:45.683Z,92.34
2023-03-22T04:10:18.153Z,92.03
2023-03-22T04:10:50.597Z,92.14
2023-03-22T04:11:23.033Z,92.44
2023-03-22T04:11:55.532Z,92.24
2023-03-22T04:12:28.042Z,92.14
2023-03-22T04:13:00.505Z,92.03
2023-03-22T04:13:33.053Z,92.03
2023-03-22T04:14:05.503Z,91.83
2023-03-22T04:14:37.936Z,91.93
2023-03-22T04:15:10.384Z,91.73
2023-03-22T04:15:42.828Z,91.73
2023-03-22T04:16:15.288Z,91.83
2023-03-22T04:16:47.948Z,91.42
2023-03-22T04:17:20.261Z,91.42
2023-03-22T04:17:52.758Z,91.52
2023-03-22T04:18:25.243Z,91.63
2023-03-22T04:18:57.981Z,91.31
2023-03-22T04:19:30.427Z,91.31
2023-03-22T04:20:04.257Z,91.31
2023-03-22T04:20:35.491Z,91.73
2023-03-22T04:21:07.998Z,91.73
2023-03-22T04:21:40.514Z,91.73
2023-03-22T04:22:12.987Z,91.93
2023-03-22T04:22:45.445Z,91.83
2023-03-22T04:23:17.945Z,92.03
2023-03-22T04:23:50.452Z,92.14
2023-03-22T04:24:22.947Z,92.14
2023-03-22T04:24:55.411Z,92.24
2023-03-22T04:25:27.876Z,92.14
2023-03-22T04:26:00.351Z,92.28
2023-03-22T04:26:32.810Z,92.69
2023-03-22T04:27:05.223Z,92.38
2023-03-22T04:27:37.740Z,92.24
2023-03-22T04:28:10.201Z,92.08
2023-03-22T04:28:42.699Z,92.24
2023-03-22T04:29:15.152Z,92.49
2023-03-22T04:29:47.682Z,92.49
2023-03-22T04:30:20.284Z,92.49
2023-03-22T04:30:52.623Z,92.38
2023-03-22T04:31:25.116Z,92.59
2023-03-22T04:31:57.507Z,92.49
2023-03-22T04:32:29.956Z,92.49
2023-03-22T04:33:02.429Z,92.69
2023-03-22T04:33:34.872Z,92.49
2023-03-22T04:34:07.367Z,92.49
2023-03-22T04:34:39.771Z,92.59
2023-03-22T04:35:12.262Z,92.69
2023-03-22T04:35:44.774Z,92.59
2023-03-22T04:36:17.187Z,92.49
2023-03-22T04:36:49.631Z,92.49
2023-03-22T04:37:22.171Z,92.49
2023-03-22T04:37:54.686Z,92.69
2023-03-22T04:38:27.121Z,92.38
2023-03-22T04:38:59.562Z,92.28
2023-03-22T04:39:32.037Z,92.38
2023-03-22T04:40:04.584Z,92.28
2023-03-22T04:40:37.000Z,92.28
2023-03-22T04:41:09.498Z,92.28
2023-03-22T04:41:41.914Z,92.59
2023-03-22T04:42:14.412Z,92.59
2023-03-22T04:42:46.896Z,92.79
2023-03-22T04:43:19.369Z,92.69
2023-03-22T04:43:51.825Z,92.69
2023-03-22T04:44:24.289Z,92.90
2023-03-22T04:44:56.722Z,93.10
2023-03-22T04:45:29.306Z,92.90
2023-03-22T04:46:01.737Z,92.59
2023-03-22T04:46:34.191Z,92.49
2023-03-22T04:47:06.617Z,92.38
2023-03-22T04:47:39.073Z,92.38
2023-03-22T04:48:11.539Z,92.28
2023-03-22T04:48:44.085Z,92.28
2023-03-22T04:49:16.528Z,92.59
2023-03-22T04:49:48.980Z,92.38
2023-03-22T04:50:21.605Z,92.28
2023-03-22T04:50:54.064Z,92.38
2023-03-22T04:51:26.487Z,92.59
2023-03-22T04:51:58.999Z,92.79
2023-03-22T04:52:31.477Z,92.49
2023-03-22T04:53:03.971Z,92.38
2023-03-22T04:53:36.489Z,92.38
2023-03-22T04:54:09.016Z,92.38
2023-03-22T04:54:41.558Z,92.28
2023-03-22T04:55:14.138Z,92.28
2023-03-22T04:55:46.604Z,92.49
2023-03-22T04:56:19.073Z,92.59
2023-03-22T04:56:51.520Z,92.38
2023-03-22T04:57:24.000Z,92.38
2023-03-22T04:57:56.448Z,92.49
2023-03-22T04:58:28.961Z,92.49
2023-03-22T04:59:01.452Z,92.79
2023-03-22T04:59:33.960Z,92.59
2023-03-22T05:00:06.413Z,92.69
2023-03-22T05:00:39.241Z,92.59
2023-03-22T05:01:11.458Z,92.69
2023-03-22T05:01:43.940Z,92.79
2023-03-22T05:02:16.331Z,92.90
2023-03-22T05:02:48.816Z,92.83
2023-03-22T05:03:21.256Z,93.04
2023-03-22T05:03:53.715Z,93.15
2023-03-22T05:04:26.206Z,93.25
2023-03-22T05:04:58.652Z,93.25
2023-03-22T05:05:31.157Z,93.35
2023-03-22T05:06:03.624Z,93.15
2023-03-22T05:06:36.153Z,93.15
2023-03-22T05:07:08.590Z,93.04
2023-03-22T05:07:41.012Z,92.83
2023-03-22T05:08:13.468Z,93.04
2023-03-22T05:08:45.938Z,93.04
2023-03-22T05:09:18.407Z,93.04
2023-03-22T05:09:50.904Z,92.83
2023-03-22T05:10:23.334Z,93.04
2023-03-22T05:10:55.879Z,93.15
2023-03-22T05:11:28.406Z,92.94
2023-03-22T05:12:00.943Z,93.25
2023-03-22T05:12:33.406Z,93.15
2023-03-22T05:13:05.860Z,93.04
2023-03-22T05:13:38.293Z,93.04
2023-03-22T05:14:10.788Z,93.15
2023-03-22T05:14:43.298Z,93.15
2023-03-22T05:15:15.725Z,93.35
2023-03-22T05:15:48.204Z,93.55
2023-03-22T05:16:20.670Z,93.55
2023-03-22T05:16:53.089Z,93.55
2023-03-22T05:17:25.537Z,93.55
2023-03-22T05:17:58.005Z,93.45
2023-03-22T05:18:30.507Z,93.66
2023-03-22T05:19:02.925Z,93.76
2023-03-22T05:19:35.381Z,93.55
2023-03-22T05:20:07.832Z,93.66
2023-03-22T05:20:40.576Z,93.45
2023-03-22T05:21:13.574Z,93.45
2023-03-22T05:21:46.053Z,93.45
2023-03-22T05:22:18.495Z,93.55
2023-03-22T05:22:50.957Z,93.35
2023-03-22T05:23:23.418Z,93.35
2023-03-22T05:23:55.882Z,93.35
2023-03-22T05:24:28.339Z,93.35
2023-03-22T05:25:02.248Z,93.55
2023-03-22T05:25:34.714Z,93.76
2023-03-22T05:26:07.131Z,93.86
2023-03-22T05:26:39.653Z,93.76
2023-03-22T05:27:12.156Z,93.76
2023-03-22T05:27:44.660Z,93.96
2023-03-22T05:28:17.150Z,93.96
2023-03-22T05:28:49.593Z,93.76
2023-03-22T05:29:22.225Z,93.55
2023-03-22T05:29:54.789Z,93.45
2023-03-22T05:30:27.223Z,93.45
2023-03-22T05:30:59.702Z,93.55
2023-03-22T05:31:32.250Z,93.55
2023-03-22T05:32:04.739Z,93.55
2023-03-22T05:32:37.209Z,93.66
2023-03-22T05:33:09.745Z,93.45
2023-03-22T05:33:42.244Z,93.35
2023-03-22T05:34:14.791Z,93.25
2023-03-22T05:34:47.284Z,93.25
2023-03-22T05:35:19.733Z,93.35
2023-03-22T05:35:52.253Z,93.55
2023-03-22T05:36:24.673Z,93.55
2023-03-22T05:36:57.134Z,93.55
2023-03-22T05:37:29.652Z,93.55
2023-03-22T05:38:02.158Z,93.25
2023-03-22T05:38:34.604Z,93.25
2023-03-22T05:39:07.049Z,93.41
2023-03-22T05:39:39.522Z,93.30
2023-03-22T05:40:11.987Z,93.20
2023-03-22T05:40:44.422Z,92.90
2023-03-22T05:41:16.856Z,92.79
2023-03-22T05:41:49.318Z,92.79
2023-03-22T05:42:21.795Z,92.90
2023-03-22T05:42:54.233Z,92.69
2023-03-22T05:43:26.656Z,92.90
2023-03-22T05:43:59.135Z,92.90
2023-03-22T05:44:31.573Z,92.79
2023-03-22T05:45:04.051Z,92.79
2023-03-22T05:45:36.612Z,92.90
2023-03-22T05:46:09.090Z,92.49
2023-03-22T05:46:41.521Z,92.49
2023-03-22T05:47:13.973Z,92.38
2023-03-22T05:47:46.428Z,92.08
2023-03-22T05:48:18.912Z,92.18
2023-03-22T05:48:51.347Z,92.28
2023-03-22T05:49:23.830Z,92.28
2023-03-22T05:49:56.345Z,92.18
2023-03-22T05:50:28.871Z,91.97
2023-03-22T05:51:01.447Z,92.03
2023-03-22T05:51:33.992Z,92.14
2023-03-22T05:52:06.479Z,92.44
2023-03-22T05:52:38.979Z,92.14
2023-03-22T05:53:11.455Z,91.93
2023-03-22T05:53:43.978Z,91.93
2023-03-22T05:54:17.087Z,91.83
2023-03-22T05:54:49.677Z,91.83
2023-03-22T05:55:22.161Z,91.73
2023-03-22T05:55:54.625Z,91.83
2023-03-22T05:56:27.122Z,91.93
2023-03-22T05:56:59.672Z,91.63
2023-03-22T05:57:32.204Z,91.63
2023-03-22T05:58:04.664Z,91.73
2023-03-22T05:58:37.713Z,91.52
2023-03-22T05:59:10.161Z,91.63
2023-03-22T05:59:42.618Z,91.52
2023-03-22T06:00:15.095Z,91.73
2023-03-22T06:00:47.545Z,91.52
2023-03-22T06:01:20.025Z,91.52
2023-03-22T06:01:52.544Z,91.42
2023-03-22T06:02:24.960Z,91.52
2023-03-22T06:02:57.441Z,91.42
2023-03-22T06:03:29.983Z,91.83
2023-03-22T06:04:02.422Z,91.73
2023-03-22T06:04:34.890Z,91.63
2023-03-22T06:05:07.349Z,91.52
2023-03-22T06:05:39.856Z,91.83
2023-03-22T06:06:12.367Z,91.52
2023-03-22T06:06:44.854Z,91.11
2023-03-22T06:07:17.344Z,91.42
2023-03-22T06:07:49.846Z,91.52
2023-03-22T06:08:23.677Z,91.63
2023-03-22T06:08:56.440Z,91.31
2023-03-22T06:09:27.259Z,91.22
2023-03-22T06:09:59.748Z,91.31
2023-03-22T06:10:32.186Z,91.31
2023-03-22T06:11:04.621Z,91.31
2023-03-22T06:11:37.079Z,91.42
2023-03-22T06:12:09.550Z,91.22
2023-03-22T06:12:42.077Z,90.81
2023-03-22T06:13:14.682Z,91.17
2023-03-22T06:13:47.084Z,90.77
2023-03-22T06:14:19.784Z,90.77
2023-03-22T06:14:52.473Z,90.77
2023-03-22T06:15:24.941Z,90.86
2023-03-22T06:15:57.491Z,90.97
2023-03-22T06:16:29.977Z,90.86
2023-03-22T06:17:02.368Z,90.86
2023-03-22T06:17:34.923Z,90.77
2023-03-22T06:18:07.357Z,90.56
2023-03-22T06:18:39.947Z,90.56
2023-03-22T06:19:12.410Z,90.66
2023-03-22T06:19:44.929Z,90.56
2023-03-22T06:20:17.401Z,90.56
2023-03-22T06:20:49.919Z,90.25
2023-03-22T06:21:22.447Z,90.56
2023-03-22T06:21:54.913Z,90.77
2023-03-22T06:22:27.352Z,90.66
2023-03-22T06:22:59.865Z,90.56
2023-03-22T06:23:32.322Z,90.45
2023-03-22T06:24:04.790Z,90.36
2023-03-22T06:24:37.233Z,90.66
2023-03-22T06:25:09.693Z,90.56
2023-03-22T06:25:42.130Z,90.15
2023-03-22T06:26:14.593Z,90.25
2023-03-22T06:26:47.132Z,90.25
2023-03-22T06:27:19.562Z,90.45
2023-03-22T06:27:52.010Z,90.25
2023-03-22T06:28:24.468Z,90.05
2023-03-22T06:28:56.949Z,90.25
2023-03-22T06:29:29.419Z,90.36
2023-03-22T06:30:01.879Z,90.77
2023-03-22T06:30:34.317Z,90.86
2023-03-22T06:31:06.799Z,90.97
2023-03-22T06:31:39.198Z,90.77
2023-03-22T06:32:11.705Z,90.45
2023-03-22T06:32:44.231Z,90.45
2023-03-22T06:33:16.744Z,90.77
2023-03-22T06:33:49.183Z,90.56
2023-03-22T06:34:21.629Z,90.56
2023-03-22T06:34:54.064Z,90.25
2023-03-22T06:35:26.527Z,90.56
2023-03-22T06:35:59.069Z,90.45
2023-03-22T06:36:31.504Z,90.45
2023-03-22T06:37:03.945Z,90.62
2023-03-22T06:37:36.398Z,90.62
2023-03-22T06:38:08.866Z,90.31
2023-03-22T06:38:41.359Z,90.00
2023-03-22T06:39:13.832Z,90.41
2023-03-22T06:39:46.261Z,89.90
2023-03-22T06:40:18.759Z,89.50
2023-03-22T06:40:51.204Z,89.50
2023-03-22T06:41:23.739Z,89.50
2023-03-22T06:41:56.194Z,89.29
2023-03-22T06:42:28.729Z,88.98
2023-03-22T06:43:03.976Z,88.74
2023-03-22T06:43:33.643Z,88.74
2023-03-22T06:44:06.073Z,89.15
2023-03-22T06:44:38.560Z,89.25
2023-03-22T06:45:11.021Z,88.74
2023-03-22T06:45:43.466Z,88.94
2023-03-22T06:46:16.000Z,88.84
2023-03-22T06:46:48.387Z,88.79
2023-03-22T06:47:20.852Z,88.39
2023-03-22T06:47:53.300Z,88.39
2023-03-22T06:48:25.755Z,88.70
2023-03-22T06:48:58.188Z,88.49
2023-03-22T06:49:30.666Z,88.08
2023-03-22T06:50:03.121Z,87.67
2023-03-22T06:50:35.598Z,87.67
2023-03-22T06:51:08.037Z,87.06
2023-03-22T06:51:40.470Z,87.63
2023-03-22T06:52:12.945Z,87.43
2023-03-22T06:52:45.417Z,87.23
2023-03-22T06:53:17.865Z,86.91
2023-03-22T06:53:50.351Z,86.51
2023-03-22T06:54:22.799Z,85.89
2023-03-22T06:54:55.268Z,86.20
2023-03-22T06:55:27.741Z,86.41
2023-03-22T06:56:00.186Z,86.61
2023-03-22T06:56:32.666Z,86.71
2023-03-22T06:57:05.172Z,85.89
2023-03-22T06:57:37.626Z,86.10
2023-03-22T06:58:10.096Z,86.10
2023-03-22T06:58:42.586Z,86.20
2023-03-22T06:59:15.105Z,85.65
2023-03-22T06:59:47.564Z,85.86